Data for 04/15/2016

Time Sea-Level Adjusted Pressure Absolute Pressure Temperature Relative Humidity Dew Point   
(mb) (inHg) (mb) (inHg) (C) (F) (%) (C) (F)
00:05 1011 29.85 841 24.83 0.4 32.7 90 -1.1 30
00:10 1011 29.85 841 24.83 0.4 32.7 90 -1 30.1
00:15 1011 29.85 841 24.83 0.4 32.8 89 -1.1 30
00:20 1011 29.85 841 24.83 0.5 32.9 89 -1.1 30
00:25 1012 29.88 841 24.83 0.4 32.7 89 -1.2 29.8
00:30 1012 29.88 841 24.83 0.3 32.6 89 -1.3 29.6
00:35 1012 29.88 841 24.83 0.2 32.3 89 -1.5 29.4
00:40 1012 29.88 841 24.83 0 32.1 89 -1.6 29.2
00:45 1012 29.88 841 24.83 -0 31.9 89 -1.7 29
00:50 1012 29.88 841 24.83 -0.1 31.8 88 -1.9 28.6
00:55 1012 29.88 841 24.83 -0.1 31.8 86 -2.2 28.1
01:00 1012 29.88 841 24.83 -0.2 31.6 83 -2.8 27
01:05 1012 29.88 841 24.83 -0.4 31.3 84 -2.8 27
01:10 1012 29.88 841 24.83 -0.4 31.2 83 -3 26.6
01:15 1012 29.88 841 24.83 -0.3 31.4 82 -3 26.5
01:20 1012 29.88 841 24.83 -0.2 31.7 82 -2.9 26.8
01:25 1012 29.88 841 24.83 -0 31.9 82 -2.8 26.9
01:30 1012 29.88 841 24.83 -0.1 31.9 81 -2.9 26.8
01:35 1012 29.88 841 24.83 -0.1 31.8 81 -3 26.7
01:40 1011 29.85 841 24.83 -0.1 31.8 81 -3 26.5
01:45 1011 29.85 841 24.83 -0.1 31.7 81 -3 26.5
01:50 1012 29.88 841 24.83 -0.2 31.7 82 -2.9 26.8
01:55 1012 29.88 841 24.83 -0.3 31.4 83 -2.9 26.8
02:00 1012 29.88 841 24.83 -0.6 30.8 85 -2.9 26.8
02:05 1011 29.85 841 24.83 -0.6 30.9 83 -3.1 26.3
02:10 1011 29.85 841 24.83 -0.3 31.5 82 -3.1 26.5
02:15 1012 29.88 841 24.83 -0.1 31.9 81 -3 26.6
02:20 1011 29.85 841 24.83 0 32.1 81 -2.8 26.9
02:25 1011 29.85 841 24.83 0.1 32.2 81 -2.8 27
02:30 1011 29.85 841 24.83 0.2 32.3 80 -2.8 26.9
02:35 1011 29.85 841 24.83 0.1 32.2 80 -2.9 26.7
02:40 1011 29.85 841 24.83 -0 32 80 -3.1 26.4
02:45 1011 29.85 841 24.83 -0 31.9 80 -3.1 26.4
02:50 1011 29.85 841 24.83 0 32 78 -3.3 26.1
02:55 1011 29.85 841 24.83 0.1 32.1 78 -3.4 25.9
03:00 1011 29.85 841 24.83 0.1 32.2 77 -3.4 25.8
03:05 1011 29.85 841 24.83 0.1 32.3 76 -3.6 25.6
03:10 1011 29.85 841 24.83 0.3 32.5 76 -3.5 25.7
03:15 1011 29.85 841 24.83 0.3 32.6 76 -3.5 25.7
03:20 1012 29.88 841 24.83 0.3 32.5 76 -3.4 25.9
03:25 1012 29.88 841 24.83 0.2 32.4 77 -3.4 25.9
03:30 1011 29.85 841 24.83 0.1 32.3 78 -3.2 26.2
03:35 1011 29.85 841 24.83 0.3 32.5 75 -3.7 25.4
03:40 1012 29.88 841 24.83 0.6 33 76 -3.2 26.2
03:45 1012 29.88 841 24.83 0.6 33 74 -3.5 25.7
03:50 1012 29.88 841 24.83 0.6 33.1 74 -3.4 25.8
03:55 1012 29.88 841 24.83 0.8 33.4 73 -3.6 25.5
04:00 1012 29.88 841 24.83 0.9 33.6 71 -3.8 25.1
04:05 1012 29.88 841 24.83 1 33.9 72 -3.5 25.7
04:10 1012 29.88 841 24.83 1.1 33.9 71 -3.6 25.6
04:15 1012 29.88 841 24.83 1.1 34 71 -3.6 25.5
04:20 1012 29.88 841 24.83 1.3 34.3 69 -3.9 25.1
04:25 1012 29.88 841 24.83 1.6 35 68 -3.6 25.5
04:30 1012 29.88 841 24.83 1.6 35 70 -3.3 26.1
04:35 1012 29.88 841 24.83 1.4 34.5 72 -3.2 26.3
04:40 1012 29.88 841 24.83 1.3 34.3 73 -3 26.6
04:45 1012 29.88 841 24.83 1.2 34.1 75 -2.9 26.8
04:50 1012 29.88 841 24.83 1.1 34 74 -2.9 26.7
04:55 1012 29.88 841 24.83 1.1 34.1 75 -2.9 26.8
05:00 1012 29.88 841 24.83 1.2 34.1 75 -2.8 27
05:05 1012 29.88 841 24.83 1.2 34.1 75 -2.9 26.8
05:10 1012 29.88 841 24.83 1.2 34.1 75 -2.8 27
05:15 1012 29.88 841 24.83 1.2 34.2 75 -2.8 27
05:20 1012 29.88 841 24.83 1.2 34.2 74 -2.8 26.9
05:25 1012 29.88 841 24.83 1.2 34.2 75 -2.7 27.1
05:30 1012 29.88 841 24.83 1.2 34.2 74 -2.8 26.9
05:35 1012 29.88 841 24.83 1.3 34.3 74 -2.8 27
05:40 1012 29.88 841 24.83 1.3 34.4 75 -2.7 27.2
05:45 1012 29.88 842 24.86 1.3 34.4 74 -2.8 27
05:50 1012 29.88 842 24.86 1.3 34.4 78 -2.2 28.1
05:55 1012 29.88 842 24.86 1 33.8 82 -1.7 28.9
06:00 1013 29.91 842 24.86 0.7 33.2 83 -2 28.5
06:05 1013 29.91 842 24.86 0.6 33.1 84 -1.8 28.8
06:10 1013 29.91 842 24.86 0.5 32.9 87 -1.5 29.3
06:15 1013 29.91 842 24.86 0.3 32.6 88 -1.4 29.5
06:20 1013 29.91 842 24.86 0.2 32.4 90 -1.3 29.7
06:25 1013 29.91 842 24.86 0.1 32.2 91 -1.2 29.9
06:30 1013 29.91 842 24.86 0.1 32.1 92 -1.2 29.9
06:35 1013 29.91 842 24.86 0.1 32.1 92 -1.2 29.9
06:40 1013 29.91 842 24.86 0.1 32.2 92 -1.1 30
06:45 1013 29.91 842 24.86 0.1 32.1 91 -1.2 29.9
06:50 1013 29.91 842 24.86 0.1 32.2 91 -1.2 29.8
06:55 1013 29.91 842 24.86 0.1 32.2 91 -1.2 29.8
07:00 1013 29.91 842 24.86 0.2 32.4 91 -1.1 30
07:05 1013 29.91 842 24.86 0.2 32.4 91 -1.1 29.9
07:10 1013 29.91 842 24.86 0.2 32.4 90 -1.2 29.9
07:15 1013 29.91 842 24.86 0.3 32.5 90 -1.2 29.8
07:20 1013 29.91 842 24.86 0.2 32.4 90 -1.2 29.8
07:25 1013 29.91 842 24.86 0.3 32.5 90 -1.2 29.8
07:30 1013 29.91 843 24.89 0.3 32.5 90 -1.2 29.8
07:35 1013 29.91 843 24.89 0.3 32.6 89 -1.2 29.8
07:40 1013 29.91 843 24.89 0.4 32.7 89 -1.2 29.9
07:45 1014 29.94 843 24.89 0.3 32.6 90 -1.1 30
07:50 1014 29.94 843 24.89 0.3 32.5 91 -1.1 30.1
07:55 1014 29.94 843 24.89 0.3 32.5 91 -1.1 30.1
08:00 1014 29.94 843 24.89 0.2 32.4 91 -1 30.1
08:05 1014 29.94 843 24.89 0.2 32.4 92 -1 30.2
08:10 1014 29.94 843 24.89 0.2 32.4 92 -0.9 30.4
08:15 1014 29.94 843 24.89 0.2 32.4 92 -0.9 30.4
08:20 1014 29.94 843 24.89 0.3 32.5 92 -0.9 30.4
08:25 1014 29.94 843 24.89 0.4 32.8 91 -0.8 30.5
08:30 1014 29.94 843 24.89 0.5 33 91 -0.7 30.7
08:35 1014 29.94 843 24.89 0.7 33.2 91 -0.7 30.7
08:40 1014 29.94 843 24.89 0.7 33.2 90 -0.7 30.7
08:45 1014 29.94 843 24.89 0.7 33.3 90 -0.8 30.6
08:50 1014 29.94 844 24.92 1 33.7 88 -0.8 30.6
08:55 1014 29.94 844 24.92 1.1 34 87 -0.8 30.6
09:00 1014 29.94 844 24.92 1.2 34.1 88 -0.7 30.8
09:05 1015 29.97 844 24.92 1.3 34.3 86 -0.8 30.6
09:10 1015 29.97 844 24.92 1.2 34.2 85 -1.1 30.1
09:15 1015 29.97 844 24.92 1.4 34.6 85 -0.8 30.6
09:20 1015 29.97 844 24.92 1.6 34.9 85 -0.7 30.7
09:25 1015 29.97 844 24.92 1.7 35 83 -0.9 30.4
09:30 1015 29.97 844 24.92 1.7 35 81 -1.2 29.8
09:35 1015 29.97 844 24.92 1.7 35.1 78 -1.7 29
09:40 1015 29.97 844 24.92 1.7 35.1 82 -1.1 30.1
09:45 1015 29.97 844 24.92 1.7 35 81 -1.3 29.7
09:50 1015 29.97 844 24.92 1.6 34.8 82 -1.1 30
09:55 1015 29.97 845 24.95 1.5 34.8 80 -1.5 29.3
10:00 1016 30 845 24.95 1.6 34.9 83 -0.9 30.4
10:05 1016 30 845 24.95 1.7 35 84 -0.8 30.6
10:10 1016 30 845 24.95 1.5 34.7 85 -0.7 30.7
10:15 1016 30 845 24.95 1.4 34.5 86 -0.7 30.8
10:20 1016 30 845 24.95 1.6 34.8 83 -1 30.2
10:25 1016 30 845 24.95 1.7 35.1 81 -1.2 29.8
10:30 1016 30 845 24.95 1.7 35.1 81 -1.1 29.9
10:35 1016 30 845 24.95 1.8 35.3 82 -1 30.3
10:40 1016 30 845 24.95 1.4 34.5 84 -1 30.2
10:45 1016 30 845 24.95 1.4 34.5 85 -0.9 30.4
10:50 1016 30 845 24.95 1.3 34.3 82 -1.4 29.5
10:55 1016 30 846 24.98 1.4 34.5 82 -1.3 29.7
11:00 1016 30 846 24.98 1.1 33.9 85 -1.2 29.8
11:05 1017 30.03 846 24.98 1.1 33.9 86 -1.1 30.1
11:10 1017 30.03 846 24.98 1.3 34.4 85 -0.9 30.4
11:15 1017 30.03 846 24.98 1.1 34 84 -1.3 29.7
11:20 1017 30.03 846 24.98 1.3 34.3 83 -1.2 29.8
11:25 1017 30.03 846 24.98 1.5 34.7 82 -1.3 29.7
11:30 1017 30.03 846 24.98 1.4 34.4 84 -1.1 30.1
11:35 1017 30.03 846 24.98 1.2 34.2 86 -0.9 30.3
11:40 1017 30.03 846 24.98 0.6 33.1 88 -1.1 29.9
11:45 1017 30.03 847 25.01 -0.2 31.6 91 -1.5 29.2
11:50 1017 30.03 847 25.01 -0.4 31.3 92 -1.5 29.3
11:55 1017 30.03 847 25.01 -0.2 31.6 92 -1.4 29.6
12:00 1017 30.03 847 25.01 -0.1 31.8 92 -1.3 29.7
12:05 1018 30.06 847 25.01 0 32.1 92 -1.2 29.9
12:10 1018 30.06 847 25.01 0.1 32.2 91 -1.2 29.8
12:15 1018 30.06 847 25.01 0.3 32.5 90 -1.1 30
12:20 1018 30.06 847 25.01 0.4 32.7 89 -1.1 30
12:25 1018 30.06 847 25.01 0.5 32.8 89 -1.2 29.8
12:30 1018 30.06 847 25.01 0.5 33 89 -1.1 30
12:35 1018 30.06 847 25.01 0.6 33.1 88 -1.2 29.8
12:40 1018 30.06 847 25.01 0.6 33.1 89 -1 30.1
12:45 1018 30.06 847 25.01 0.8 33.5 89 -0.8 30.5
12:50 1018 30.06 848 25.04 0.9 33.7 89 -0.7 30.7
12:55 1018 30.06 848 25.04 0.9 33.7 89 -0.7 30.7
13:00 1018 30.06 848 25.04 0.9 33.7 89 -0.6 30.9
13:05 1019 30.09 848 25.04 1 33.9 89 -0.6 30.9
13:10 1019 30.09 848 25.04 1.2 34.1 88 -0.5 31
13:15 1019 30.09 848 25.04 1.4 34.4 88 -0.4 31.2
13:20 1019 30.09 848 25.04 1.6 34.9 87 -0.3 31.4
13:25 1019 30.09 848 25.04 1.9 35.4 86 -0.2 31.6
13:30 1019 30.09 848 25.04 1.6 34.9 85 -0.6 30.9
13:35 1019 30.09 848 25.04 1.4 34.5 86 -0.7 30.8
13:40 1019 30.09 848 25.04 1.4 34.5 85 -0.9 30.4
13:45 1019 30.09 848 25.04 1.5 34.7 84 -0.9 30.4
13:50 1019 30.09 848 25.04 1.8 35.2 81 -1.2 29.8
13:55 1019 30.09 848 25.04 1.9 35.4 79 -1.4 29.5
14:00 1019 30.09 848 25.04 2.2 35.9 78 -1.2 29.8
14:05 1019 30.09 848 25.04 2.5 36.4 77 -1.2 29.8
14:10 1019 30.09 849 25.07 2.6 36.6 76 -1.3 29.7
14:15 1019 30.09 849 25.07 2.3 36.1 77 -1.3 29.7
14:20 1020 30.12 849 25.07 2.2 36 79 -1 30.2
14:25 1020 30.12 849 25.07 2.5 36.4 77 -1.1 30
14:30 1020 30.12 849 25.07 2.5 36.5 77 -1.2 29.8
14:35 1020 30.12 849 25.07 2.5 36.4 78 -1 30.2
14:40 1020 30.12 849 25.07 2.6 36.6 78 -0.8 30.5
14:45 1020 30.12 849 25.07 2.5 36.5 75 -1.4 29.5
14:50 1020 30.12 849 25.07 2.3 36.2 77 -1.4 29.5
14:55 1020 30.12 849 25.07 2.5 36.5 77 -1.2 29.9
15:00 1020 30.12 849 25.07 2.8 37.1 74 -1.3 29.6
15:05 1020 30.12 849 25.07 3.2 37.7 72 -1.4 29.5
15:10 1020 30.12 849 25.07 3.4 38.1 73 -1 30.2
15:15 1020 30.12 849 25.07 3.4 38.1 71 -1.3 29.6
15:20 1020 30.12 849 25.07 3.4 38.1 72 -1.3 29.7
15:25 1020 30.12 850 25.1 3.2 37.7 74 -1.1 30.1
15:30 1020 30.12 850 25.1 3 37.3 73 -1.5 29.3
15:35 1020 30.12 850 25.1 3.3 38 69 -1.9 28.6
15:40 1021 30.15 850 25.1 3.9 38.9 67 -1.6 29
15:45 1021 30.15 850 25.1 3.8 38.8 66 -1.9 28.6
15:50 1021 30.15 850 25.1 3.7 38.6 65 -2.4 27.7
15:55 1021 30.15 850 25.1 3.8 38.9 66 -1.9 28.6
16:00 1021 30.15 850 25.1 3.8 38.9 65 -2.1 28.2
16:05 1021 30.15 850 25.1 3.9 38.9 63 -2.5 27.5
16:10 1021 30.15 850 25.1 4.2 39.5 63 -2.3 27.9
16:15 1021 30.15 850 25.1 4.5 40 60 -2.5 27.5
16:20 1021 30.15 850 25.1 4.2 39.5 61 -2.6 27.3
16:25 1021 30.15 850 25.1 4 39.2 62 -2.6 27.3
16:30 1021 30.15 850 25.1 4.1 39.4 62 -2.6 27.3
16:35 1021 30.15 850 25.1 4.2 39.5 63 -2.2 28
16:40 1021 30.15 851 25.13 4.1 39.4 63 -2.4 27.7
16:45 1021 30.15 851 25.13 4 39.3 61 -2.8 27
16:50 1022 30.18 851 25.13 3.9 39 62 -2.7 27.1
16:55 1022 30.18 851 25.13 3.9 39.1 62 -2.7 27.1
17:00 1022 30.18 851 25.13 3.9 39 63 -2.6 27.3
17:05 1022 30.18 851 25.13 3.3 38 66 -2.3 27.8
17:10 1022 30.18 851 25.13 3 37.5 66 -2.6 27.3
17:15 1022 30.18 851 25.13 2.9 37.3 67 -2.7 27.2
17:20 1022 30.18 851 25.13 2.9 37.2 67 -2.5 27.4
17:25 1022 30.18 851 25.13 2.9 37.3 67 -2.6 27.2
17:30 1022 30.18 851 25.13 2.9 37.3 67 -2.6 27.4
17:35 1022 30.18 852 25.16 2.9 37.2 67 -2.6 27.2
17:40 1022 30.18 852 25.16 2.9 37.2 66 -2.9 26.9
17:45 1022 30.18 852 25.16 2.8 37.1 66 -2.9 26.7
17:50 1022 30.18 852 25.16 2.8 37 66 -2.9 26.8
17:55 1023 30.21 852 25.16 2.8 37 67 -2.7 27.1
18:00 1023 30.21 852 25.16 2.7 36.9 67 -2.9 26.8
18:05 1023 30.21 852 25.16 2.7 36.9 67 -2.8 27
18:10 1023 30.21 852 25.16 2.6 36.8 68 -2.7 27.2
18:15 1023 30.21 852 25.16 2.6 36.7 69 -2.6 27.3
18:20 1023 30.21 852 25.16 2.5 36.4 70 -2.5 27.6
18:25 1023 30.21 852 25.16 2.4 36.2 71 -2.4 27.7
18:30 1023 30.21 852 25.16 2.2 36 71 -2.5 27.6
18:35 1023 30.21 852 25.16 2.1 35.8 72 -2.5 27.6
18:40 1023 30.21 852 25.16 2 35.6 72 -2.5 27.5
18:45 1023 30.21 852 25.16 1.9 35.4 72 -2.6 27.4
18:50 1023 30.21 852 25.16 1.9 35.4 72 -2.6 27.3
18:55 1023 30.21 853 25.19 1.9 35.4 73 -2.5 27.5
19:00 1023 30.21 853 25.19 1.9 35.4 73 -2.5 27.5
19:05 1023 30.21 853 25.19 1.9 35.3 73 -2.4 27.7
19:10 1023 30.21 853 25.19 1.8 35.3 74 -2.4 27.6
19:15 1023 30.21 853 25.19 1.8 35.2 73 -2.6 27.4
19:20 1024 30.24 853 25.19 1.8 35.2 73 -2.6 27.3
19:25 1024 30.24 853 25.19 1.8 35.2 72 -2.7 27.1
19:30 1024 30.24 853 25.19 1.7 35.1 72 -2.7 27.2
19:35 1024 30.24 853 25.19 1.8 35.3 73 -2.5 27.4
19:40 1024 30.24 853 25.19 1.8 35.2 73 -2.6 27.3
19:45 1024 30.24 853 25.19 1.7 35.1 74 -2.4 27.6
19:50 1024 30.24 853 25.19 1.8 35.2 73 -2.6 27.4
19:55 1024 30.24 853 25.19 1.8 35.2 73 -2.6 27.3
20:00 1024 30.24 853 25.19 1.8 35.2 72 -2.7 27.2
20:05 1024 30.24 853 25.19 1.7 35.1 73 -2.7 27.2
20:10 1024 30.24 853 25.19 1.7 35 74 -2.5 27.5
20:15 1024 30.24 854 25.22 1.3 34.4 77 -2.2 28
20:20 1024 30.24 854 25.22 1.3 34.3 78 -2.2 28
20:25 1024 30.24 854 25.22 1.2 34.2 77 -2.4 27.6
20:30 1025 30.27 854 25.22 1.2 34.1 77 -2.4 27.6
20:35 1025 30.27 854 25.22 1.2 34.2 76 -2.5 27.5
20:40 1025 30.27 854 25.22 1.2 34.1 77 -2.5 27.6
20:45 1025 30.27 854 25.22 1.2 34.1 77 -2.4 27.7
20:50 1025 30.27 854 25.22 1.1 34 77 -2.4 27.6
20:55 1025 30.27 854 25.22 1.2 34.1 77 -2.4 27.7
21:00 1025 30.27 854 25.22 1.2 34.1 77 -2.4 27.6
21:05 1025 30.27 854 25.22 1.1 34.1 76 -2.5 27.4
21:10 1025 30.27 854 25.22 1.1 34 77 -2.6 27.4
21:15 1025 30.27 854 25.22 1.1 33.9 77 -2.5 27.5
21:20 1025 30.27 854 25.22 1 33.8 77 -2.6 27.3
21:25 1025 30.27 854 25.22 0.9 33.6 78 -2.6 27.3
21:30 1025 30.27 854 25.22 0.8 33.4 78 -2.7 27.2
21:35 1025 30.27 854 25.22 0.6 33.2 79 -2.7 27.2
21:40 1025 30.27 854 25.22 0.5 32.8 80 -2.6 27.3
21:45 1025 30.27 854 25.22 0.2 32.3 81 -2.7 27.1
21:50 1025 30.27 854 25.22 0 32.1 81 -2.8 27
21:55 1025 30.27 854 25.22 -0.1 31.8 82 -2.8 27
22:00 1025 30.27 854 25.22 -0.2 31.7 82 -2.9 26.8
22:05 1025 30.27 854 25.22 -0.3 31.5 83 -2.9 26.8
22:10 1025 30.27 854 25.22 -0.4 31.3 83 -2.8 26.9
22:15 1025 30.27 854 25.22 -0.5 31.1 84 -2.9 26.8
22:20 1025 30.27 854 25.22 -0.6 30.9 85 -2.9 26.8
22:25 1025 30.27 854 25.22 -0.6 30.9 85 -2.9 26.8
22:30 1025 30.27 854 25.22 -0.6 30.9 84 -2.9 26.8
22:35 1025 30.27 854 25.22 -0.6 30.9 84 -2.9 26.8
22:40 1025 30.27 854 25.22 -0.6 30.9 85 -2.9 26.8
22:45 1025 30.27 854 25.22 -0.7 30.8 85 -3 26.7
22:50 1025 30.27 854 25.22 -0.7 30.7 85 -3 26.6
22:55 1025 30.27 854 25.22 -0.7 30.7 85 -3 26.6
23:00 1025 30.27 854 25.22 -0.7 30.8 85 -3 26.7
23:05 1025 30.27 854 25.22 -0.7 30.8 85 -2.9 26.7
23:10 1025 30.27 854 25.22 -0.6 30.9 84 -2.9 26.7
23:15 1025 30.27 854 25.22 -0.6 31 84 -2.9 26.8
23:20 1025 30.27 854 25.22 -0.7 30.8 85 -2.9 26.8
23:25 1025 30.27 854 25.22 -0.7 30.7 85 -2.9 26.8
23:30 1025 30.27 854 25.22 -0.6 30.9 85 -2.8 26.9
23:35 1025 30.27 854 25.22 -0.5 31.1 84 -2.8 26.9
23:40 1025 30.27 854 25.22 -0.4 31.3 83 -2.9 26.8
23:45 1025 30.27 854 25.22 -0.4 31.3 84 -2.8 26.9
23:50 1025 30.27 854 25.22 -0.4 31.3 83 -2.9 26.8
23:55 1025 30.27 854 25.22 -0.4 31.3 83 -2.9 26.8
24:00 1025 30.27 854 25.22 -0.4 31.3 83 -2.9 26.8